sensor_id;sensor_type;location;lat;lon;timestamp;P1;durP1;ratioP1;P2;durP2;ratioP2
16330;SDS011;8275;48.206;16.340;2022-11-15T00:01:58;24.52;;;20.50;;
16330;SDS011;8275;48.206;16.340;2022-11-15T00:04:26;25.38;;;17.58;;
16330;SDS011;8275;48.206;16.340;2022-11-15T00:06:54;21.35;;;16.08;;
16330;SDS011;8275;48.206;16.340;2022-11-15T00:09:23;25.88;;;16.42;;
16330;SDS011;8275;48.206;16.340;2022-11-15T00:11:53;24.58;;;19.40;;
16330;SDS011;8275;48.206;16.340;2022-11-15T00:14:21;21.83;;;19.40;;
16330;SDS011;8275;48.206;16.340;2022-11-15T00:16:50;24.38;;;19.27;;
16330;SDS011;8275;48.206;16.340;2022-11-15T00:19:18;23.90;;;17.00;;
16330;SDS011;8275;48.206;16.340;2022-11-15T00:21:47;20.95;;;17.38;;
16330;SDS011;8275;48.206;16.340;2022-11-15T00:24:15;20.27;;;17.52;;
16330;SDS011;8275;48.206;16.340;2022-11-15T00:26:44;24.42;;;20.52;;
16330;SDS011;8275;48.206;16.340;2022-11-15T00:29:13;24.65;;;17.17;;
16330;SDS011;8275;48.206;16.340;2022-11-15T00:31:42;23.25;;;20.02;;
16330;SDS011;8275;48.206;16.340;2022-11-15T00:34:10;27.27;;;21.75;;
16330;SDS011;8275;48.206;16.340;2022-11-15T00:36:39;25.88;;;17.58;;
16330;SDS011;8275;48.206;16.340;2022-11-15T00:39:07;29.55;;;19.60;;
16330;SDS011;8275;48.206;16.340;2022-11-15T00:41:36;24.33;;;17.38;;
16330;SDS011;8275;48.206;16.340;2022-11-15T00:44:04;23.48;;;18.23;;
16330;SDS011;8275;48.206;16.340;2022-11-15T00:46:34;26.73;;;18.75;;
16330;SDS011;8275;48.206;16.340;2022-11-15T00:49:02;27.13;;;21.52;;
16330;SDS011;8275;48.206;16.340;2022-11-15T00:51:31;21.70;;;19.08;;
16330;SDS011;8275;48.206;16.340;2022-11-15T00:53:59;28.00;;;19.05;;
16330;SDS011;8275;48.206;16.340;2022-11-15T00:56:28;29.08;;;18.73;;
16330;SDS011;8275;48.206;16.340;2022-11-15T00:58:56;26.15;;;19.40;;
16330;SDS011;8275;48.206;16.340;2022-11-15T01:01:25;23.15;;;15.82;;
16330;SDS011;8275;48.206;16.340;2022-11-15T01:03:55;25.63;;;20.08;;
16330;SDS011;8275;48.206;16.340;2022-11-15T01:06:26;24.10;;;16.15;;
16330;SDS011;8275;48.206;16.340;2022-11-15T01:08:55;18.50;;;15.63;;
16330;SDS011;8275;48.206;16.340;2022-11-15T01:11:23;18.75;;;14.52;;
16330;SDS011;8275;48.206;16.340;2022-11-15T01:13:52;24.00;;;15.82;;
16330;SDS011;8275;48.206;16.340;2022-11-15T01:16:22;20.58;;;15.80;;
16330;SDS011;8275;48.206;16.340;2022-11-15T01:18:50;17.80;;;15.07;;
16330;SDS011;8275;48.206;16.340;2022-11-15T01:21:20;20.58;;;15.82;;
16330;SDS011;8275;48.206;16.340;2022-11-15T01:23:48;22.95;;;16.77;;
16330;SDS011;8275;48.206;16.340;2022-11-15T01:26:21;20.23;;;17.77;;
16330;SDS011;8275;48.206;16.340;2022-11-15T01:28:51;25.83;;;19.95;;
16330;SDS011;8275;48.206;16.340;2022-11-15T01:31:20;24.00;;;17.63;;
16330;SDS011;8275;48.206;16.340;2022-11-15T01:33:48;19.67;;;16.40;;
16330;SDS011;8275;48.206;16.340;2022-11-15T01:36:17;24.98;;;16.63;;
16330;SDS011;8275;48.206;16.340;2022-11-15T01:38:52;22.10;;;15.43;;
16330;SDS011;8275;48.206;16.340;2022-11-15T01:41:22;21.83;;;16.23;;
16330;SDS011;8275;48.206;16.340;2022-11-15T01:43:54;24.98;;;20.73;;
16330;SDS011;8275;48.206;16.340;2022-11-15T01:46:26;28.02;;;19.30;;
16330;SDS011;8275;48.206;16.340;2022-11-15T01:49:00;26.75;;;21.20;;
16330;SDS011;8275;48.206;16.340;2022-11-15T01:51:34;31.90;;;20.35;;
16330;SDS011;8275;48.206;16.340;2022-11-15T01:54:03;25.15;;;18.17;;
16330;SDS011;8275;48.206;16.340;2022-11-15T01:56:37;21.67;;;16.33;;
16330;SDS011;8275;48.206;16.340;2022-11-15T01:59:10;20.33;;;17.02;;
16330;SDS011;8275;48.206;16.340;2022-11-15T02:01:39;22.23;;;16.80;;
16330;SDS011;8275;48.206;16.340;2022-11-15T02:04:10;21.33;;;16.80;;
16330;SDS011;8275;48.206;16.340;2022-11-15T02:06:44;24.33;;;15.43;;
16330;SDS011;8275;48.206;16.340;2022-11-15T02:09:16;22.15;;;17.65;;
16330;SDS011;8275;48.206;16.340;2022-11-15T02:11:45;20.85;;;16.83;;
16330;SDS011;8275;48.206;16.340;2022-11-15T02:14:16;22.70;;;16.73;;
16330;SDS011;8275;48.206;16.340;2022-11-15T02:16:48;25.38;;;18.88;;
16330;SDS011;8275;48.206;16.340;2022-11-15T02:19:29;17.38;;;15.02;;
16330;SDS011;8275;48.206;16.340;2022-11-15T02:22:41;21.95;;;17.17;;
16330;SDS011;8275;48.206;16.340;2022-11-15T02:25:30;16.63;;;14.88;;
16330;SDS011;8275;48.206;16.340;2022-11-15T02:31:23;24.63;;;17.90;;
16330;SDS011;8275;48.206;16.340;2022-11-15T02:34:00;26.58;;;17.15;;
16330;SDS011;8275;48.206;16.340;2022-11-15T02:36:40;20.70;;;15.18;;
16330;SDS011;8275;48.206;16.340;2022-11-15T02:39:19;17.70;;;15.30;;
16330;SDS011;8275;48.206;16.340;2022-11-15T02:41:57;21.38;;;14.95;;
16330;SDS011;8275;48.206;16.340;2022-11-15T02:44:32;21.08;;;15.65;;
16330;SDS011;8275;48.206;16.340;2022-11-15T02:47:06;21.55;;;14.55;;
16330;SDS011;8275;48.206;16.340;2022-11-15T02:49:43;24.20;;;16.45;;
16330;SDS011;8275;48.206;16.340;2022-11-15T02:52:15;19.33;;;17.08;;
16330;SDS011;8275;48.206;16.340;2022-11-15T02:54:52;25.23;;;17.65;;
16330;SDS011;8275;48.206;16.340;2022-11-15T02:57:29;16.88;;;13.23;;
16330;SDS011;8275;48.206;16.340;2022-11-15T03:00:11;19.77;;;16.85;;
16330;SDS011;8275;48.206;16.340;2022-11-15T03:02:49;21.42;;;14.93;;
16330;SDS011;8275;48.206;16.340;2022-11-15T03:05:34;20.98;;;13.45;;
16330;SDS011;8275;48.206;16.340;2022-11-15T03:08:10;18.15;;;14.57;;
16330;SDS011;8275;48.206;16.340;2022-11-15T03:10:49;19.17;;;15.50;;
16330;SDS011;8275;48.206;16.340;2022-11-15T03:13:30;17.63;;;14.50;;
16330;SDS011;8275;48.206;16.340;2022-11-15T03:16:06;20.73;;;15.95;;
16330;SDS011;8275;48.206;16.340;2022-11-15T03:18:45;19.40;;;15.73;;
16330;SDS011;8275;48.206;16.340;2022-11-15T03:21:18;20.27;;;15.02;;
16330;SDS011;8275;48.206;16.340;2022-11-15T03:23:49;30.48;;;24.13;;
16330;SDS011;8275;48.206;16.340;2022-11-15T03:26:19;22.38;;;17.17;;
16330;SDS011;8275;48.206;16.340;2022-11-15T03:28:51;16.80;;;14.40;;
16330;SDS011;8275;48.206;16.340;2022-11-15T03:31:24;21.88;;;14.98;;
16330;SDS011;8275;48.206;16.340;2022-11-15T03:34:21;22.90;;;13.63;;
16330;SDS011;8275;48.206;16.340;2022-11-15T03:36:55;17.15;;;15.30;;
16330;SDS011;8275;48.206;16.340;2022-11-15T03:39:24;18.27;;;14.20;;
16330;SDS011;8275;48.206;16.340;2022-11-15T03:41:56;21.23;;;15.38;;
16330;SDS011;8275;48.206;16.340;2022-11-15T03:44:40;16.35;;;12.02;;
16330;SDS011;8275;48.206;16.340;2022-11-15T03:47:16;16.48;;;12.68;;
16330;SDS011;8275;48.206;16.340;2022-11-15T03:49:52;17.85;;;13.68;;
16330;SDS011;8275;48.206;16.340;2022-11-15T03:52:25;18.80;;;14.90;;
16330;SDS011;8275;48.206;16.340;2022-11-15T03:54:59;17.08;;;15.27;;
16330;SDS011;8275;48.206;16.340;2022-11-15T03:57:31;16.02;;;13.40;;
16330;SDS011;8275;48.206;16.340;2022-11-15T04:00:00;22.15;;;16.48;;
16330;SDS011;8275;48.206;16.340;2022-11-15T04:02:28;18.90;;;15.75;;
16330;SDS011;8275;48.206;16.340;2022-11-15T04:04:58;14.13;;;12.02;;
16330;SDS011;8275;48.206;16.340;2022-11-15T04:07:26;19.73;;;16.00;;
16330;SDS011;8275;48.206;16.340;2022-11-15T04:09:55;18.05;;;12.65;;
16330;SDS011;8275;48.206;16.340;2022-11-15T04:12:29;14.68;;;13.25;;
16330;SDS011;8275;48.206;16.340;2022-11-15T04:14:58;16.85;;;13.15;;
16330;SDS011;8275;48.206;16.340;2022-11-15T04:17:35;15.10;;;13.65;;
16330;SDS011;8275;48.206;16.340;2022-11-15T04:20:09;16.50;;;14.60;;
16330;SDS011;8275;48.206;16.340;2022-11-15T04:22:57;18.30;;;12.90;;
16330;SDS011;8275;48.206;16.340;2022-11-15T04:25:45;18.35;;;14.32;;
16330;SDS011;8275;48.206;16.340;2022-11-15T04:28:16;19.50;;;13.95;;
16330;SDS011;8275;48.206;16.340;2022-11-15T04:30:45;17.95;;;16.20;;
16330;SDS011;8275;48.206;16.340;2022-11-15T04:33:14;21.85;;;14.65;;
16330;SDS011;8275;48.206;16.340;2022-11-15T04:35:44;16.10;;;14.32;;
16330;SDS011;8275;48.206;16.340;2022-11-15T04:38:33;16.98;;;14.80;;
16330;SDS011;8275;48.206;16.340;2022-11-15T04:41:01;23.65;;;18.08;;
16330;SDS011;8275;48.206;16.340;2022-11-15T04:43:29;18.33;;;14.38;;
16330;SDS011;8275;48.206;16.340;2022-11-15T04:45:58;22.73;;;15.85;;
16330;SDS011;8275;48.206;16.340;2022-11-15T04:48:27;18.13;;;14.80;;
16330;SDS011;8275;48.206;16.340;2022-11-15T04:50:56;23.23;;;18.40;;
16330;SDS011;8275;48.206;16.340;2022-11-15T04:53:25;20.20;;;17.30;;
16330;SDS011;8275;48.206;16.340;2022-11-15T04:55:53;23.30;;;14.73;;
16330;SDS011;8275;48.206;16.340;2022-11-15T04:58:21;18.42;;;14.93;;
16330;SDS011;8275;48.206;16.340;2022-11-15T05:00:50;24.67;;;15.82;;
16330;SDS011;8275;48.206;16.340;2022-11-15T05:03:18;22.92;;;16.55;;
16330;SDS011;8275;48.206;16.340;2022-11-15T05:06:06;18.83;;;14.68;;
16330;SDS011;8275;48.206;16.340;2022-11-15T05:08:34;18.65;;;16.08;;
16330;SDS011;8275;48.206;16.340;2022-11-15T05:11:03;23.00;;;17.10;;
16330;SDS011;8275;48.206;16.340;2022-11-15T05:13:31;21.83;;;16.88;;
16330;SDS011;8275;48.206;16.340;2022-11-15T05:16:00;19.52;;;16.38;;
16330;SDS011;8275;48.206;16.340;2022-11-15T05:18:28;25.17;;;17.95;;
16330;SDS011;8275;48.206;16.340;2022-11-15T05:21:02;21.83;;;15.70;;
16330;SDS011;8275;48.206;16.340;2022-11-15T05:23:33;18.80;;;15.85;;
16330;SDS011;8275;48.206;16.340;2022-11-15T05:26:01;21.17;;;16.67;;
16330;SDS011;8275;48.206;16.340;2022-11-15T05:28:35;21.85;;;15.68;;
16330;SDS011;8275;48.206;16.340;2022-11-15T05:31:04;20.27;;;17.35;;
16330;SDS011;8275;48.206;16.340;2022-11-15T05:33:35;23.80;;;15.77;;
16330;SDS011;8275;48.206;16.340;2022-11-15T05:36:05;21.67;;;16.23;;
16330;SDS011;8275;48.206;16.340;2022-11-15T05:38:42;18.30;;;15.43;;
16330;SDS011;8275;48.206;16.340;2022-11-15T05:41:11;21.20;;;17.92;;
16330;SDS011;8275;48.206;16.340;2022-11-15T05:43:40;25.05;;;18.75;;
16330;SDS011;8275;48.206;16.340;2022-11-15T05:46:11;20.38;;;15.48;;
16330;SDS011;8275;48.206;16.340;2022-11-15T05:48:41;22.42;;;13.82;;
16330;SDS011;8275;48.206;16.340;2022-11-15T05:51:14;22.88;;;17.02;;
16330;SDS011;8275;48.206;16.340;2022-11-15T05:53:46;23.23;;;15.75;;
16330;SDS011;8275;48.206;16.340;2022-11-15T05:56:14;25.42;;;19.55;;
16330;SDS011;8275;48.206;16.340;2022-11-15T05:58:43;26.40;;;20.70;;
16330;SDS011;8275;48.206;16.340;2022-11-15T06:01:11;23.60;;;16.85;;
16330;SDS011;8275;48.206;16.340;2022-11-15T06:03:40;24.10;;;16.05;;
16330;SDS011;8275;48.206;16.340;2022-11-15T06:06:08;21.60;;;17.67;;
16330;SDS011;8275;48.206;16.340;2022-11-15T06:08:41;31.55;;;19.85;;
16330;SDS011;8275;48.206;16.340;2022-11-15T06:11:11;22.13;;;16.70;;
16330;SDS011;8275;48.206;16.340;2022-11-15T06:13:39;24.52;;;18.23;;
16330;SDS011;8275;48.206;16.340;2022-11-15T06:16:08;29.90;;;21.48;;
16330;SDS011;8275;48.206;16.340;2022-11-15T06:18:36;21.42;;;16.70;;
16330;SDS011;8275;48.206;16.340;2022-11-15T06:21:05;24.38;;;16.85;;
16330;SDS011;8275;48.206;16.340;2022-11-15T06:23:34;29.20;;;18.20;;
16330;SDS011;8275;48.206;16.340;2022-11-15T06:26:03;19.77;;;13.15;;
16330;SDS011;8275;48.206;16.340;2022-11-15T06:28:33;24.30;;;15.43;;
16330;SDS011;8275;48.206;16.340;2022-11-15T06:31:02;23.05;;;15.00;;
16330;SDS011;8275;48.206;16.340;2022-11-15T06:33:31;20.73;;;17.23;;
16330;SDS011;8275;48.206;16.340;2022-11-15T06:36:00;23.92;;;18.25;;
16330;SDS011;8275;48.206;16.340;2022-11-15T06:38:30;19.85;;;16.50;;
16330;SDS011;8275;48.206;16.340;2022-11-15T06:41:03;20.00;;;15.77;;
16330;SDS011;8275;48.206;16.340;2022-11-15T06:43:34;20.75;;;15.95;;
16330;SDS011;8275;48.206;16.340;2022-11-15T06:46:04;23.35;;;15.65;;
16330;SDS011;8275;48.206;16.340;2022-11-15T06:48:33;20.15;;;14.88;;
16330;SDS011;8275;48.206;16.340;2022-11-15T06:51:03;25.17;;;16.15;;
16330;SDS011;8275;48.206;16.340;2022-11-15T06:53:32;19.05;;;14.45;;
16330;SDS011;8275;48.206;16.340;2022-11-15T06:56:01;18.50;;;15.15;;
16330;SDS011;8275;48.206;16.340;2022-11-15T06:58:32;25.48;;;16.60;;
16330;SDS011;8275;48.206;16.340;2022-11-15T07:01:04;23.55;;;16.20;;
16330;SDS011;8275;48.206;16.340;2022-11-15T07:03:34;18.33;;;16.30;;
16330;SDS011;8275;48.206;16.340;2022-11-15T07:06:04;29.42;;;17.17;;
16330;SDS011;8275;48.206;16.340;2022-11-15T07:08:34;17.15;;;13.77;;
16330;SDS011;8275;48.206;16.340;2022-11-15T07:11:04;20.70;;;15.00;;
16330;SDS011;8275;48.206;16.340;2022-11-15T07:13:36;17.27;;;11.80;;
16330;SDS011;8275;48.206;16.340;2022-11-15T07:16:05;19.00;;;13.35;;
16330;SDS011;8275;48.206;16.340;2022-11-15T07:18:36;18.50;;;13.95;;
16330;SDS011;8275;48.206;16.340;2022-11-15T07:21:07;15.73;;;13.00;;
16330;SDS011;8275;48.206;16.340;2022-11-15T07:23:39;16.20;;;11.73;;
16330;SDS011;8275;48.206;16.340;2022-11-15T07:26:07;21.15;;;14.43;;
16330;SDS011;8275;48.206;16.340;2022-11-15T07:28:37;17.50;;;15.52;;
16330;SDS011;8275;48.206;16.340;2022-11-15T07:31:06;15.07;;;13.48;;
16330;SDS011;8275;48.206;16.340;2022-11-15T07:33:36;14.95;;;12.60;;
16330;SDS011;8275;48.206;16.340;2022-11-15T07:36:05;18.95;;;12.82;;
16330;SDS011;8275;48.206;16.340;2022-11-15T07:38:36;18.35;;;12.70;;
16330;SDS011;8275;48.206;16.340;2022-11-15T07:41:08;18.33;;;13.55;;
16330;SDS011;8275;48.206;16.340;2022-11-15T07:43:38;20.60;;;15.00;;
16330;SDS011;8275;48.206;16.340;2022-11-15T07:46:07;19.67;;;13.70;;
16330;SDS011;8275;48.206;16.340;2022-11-15T07:48:36;21.30;;;15.85;;
16330;SDS011;8275;48.206;16.340;2022-11-15T07:51:11;21.95;;;15.80;;
16330;SDS011;8275;48.206;16.340;2022-11-15T07:53:40;15.70;;;14.05;;
16330;SDS011;8275;48.206;16.340;2022-11-15T07:56:09;20.55;;;15.75;;
16330;SDS011;8275;48.206;16.340;2022-11-15T07:58:40;20.35;;;16.27;;
16330;SDS011;8275;48.206;16.340;2022-11-15T08:01:09;24.75;;;16.92;;
16330;SDS011;8275;48.206;16.340;2022-11-15T08:03:38;22.00;;;15.95;;
16330;SDS011;8275;48.206;16.340;2022-11-15T08:06:07;24.45;;;18.10;;
16330;SDS011;8275;48.206;16.340;2022-11-15T08:08:35;23.95;;;18.65;;
16330;SDS011;8275;48.206;16.340;2022-11-15T08:11:04;20.13;;;16.15;;
16330;SDS011;8275;48.206;16.340;2022-11-15T08:13:32;21.88;;;15.00;;
16330;SDS011;8275;48.206;16.340;2022-11-15T08:16:02;23.58;;;17.48;;
16330;SDS011;8275;48.206;16.340;2022-11-15T08:18:32;24.70;;;17.42;;
16330;SDS011;8275;48.206;16.340;2022-11-15T08:21:01;25.58;;;20.02;;
16330;SDS011;8275;48.206;16.340;2022-11-15T08:23:30;22.05;;;19.05;;
16330;SDS011;8275;48.206;16.340;2022-11-15T08:26:00;24.23;;;15.85;;
16330;SDS011;8275;48.206;16.340;2022-11-15T08:28:30;18.17;;;16.27;;
16330;SDS011;8275;48.206;16.340;2022-11-15T08:30:59;25.77;;;17.10;;
16330;SDS011;8275;48.206;16.340;2022-11-15T08:33:30;25.60;;;18.17;;
16330;SDS011;8275;48.206;16.340;2022-11-15T08:36:00;25.30;;;16.80;;
16330;SDS011;8275;48.206;16.340;2022-11-15T08:38:28;19.65;;;16.02;;
16330;SDS011;8275;48.206;16.340;2022-11-15T08:41:02;28.85;;;18.08;;
16330;SDS011;8275;48.206;16.340;2022-11-15T08:43:32;24.88;;;17.42;;
16330;SDS011;8275;48.206;16.340;2022-11-15T08:46:01;23.38;;;15.60;;
16330;SDS011;8275;48.206;16.340;2022-11-15T08:48:31;22.65;;;16.77;;
16330;SDS011;8275;48.206;16.340;2022-11-15T08:50:59;27.48;;;20.48;;
16330;SDS011;8275;48.206;16.340;2022-11-15T08:53:28;28.88;;;19.45;;
16330;SDS011;8275;48.206;16.340;2022-11-15T08:55:56;27.73;;;18.77;;
16330;SDS011;8275;48.206;16.340;2022-11-15T08:58:25;23.00;;;17.35;;
16330;SDS011;8275;48.206;16.340;2022-11-15T09:00:53;26.63;;;16.38;;
16330;SDS011;8275;48.206;16.340;2022-11-15T09:03:22;20.75;;;16.70;;
16330;SDS011;8275;48.206;16.340;2022-11-15T09:05:55;21.83;;;18.35;;
16330;SDS011;8275;48.206;16.340;2022-11-15T09:08:24;20.42;;;14.73;;
16330;SDS011;8275;48.206;16.340;2022-11-15T09:11:13;22.95;;;18.33;;
16330;SDS011;8275;48.206;16.340;2022-11-15T09:13:42;22.10;;;17.50;;
16330;SDS011;8275;48.206;16.340;2022-11-15T09:16:11;25.00;;;19.15;;
16330;SDS011;8275;48.206;16.340;2022-11-15T09:18:41;22.20;;;13.80;;
16330;SDS011;8275;48.206;16.340;2022-11-15T09:21:11;23.60;;;16.67;;
16330;SDS011;8275;48.206;16.340;2022-11-15T09:23:40;19.45;;;14.13;;
16330;SDS011;8275;48.206;16.340;2022-11-15T09:26:08;19.60;;;16.60;;
16330;SDS011;8275;48.206;16.340;2022-11-15T09:28:37;18.70;;;13.85;;
16330;SDS011;8275;48.206;16.340;2022-11-15T09:31:08;24.23;;;16.02;;
16330;SDS011;8275;48.206;16.340;2022-11-15T09:33:37;21.95;;;16.45;;
16330;SDS011;8275;48.206;16.340;2022-11-15T09:36:06;23.98;;;17.63;;
16330;SDS011;8275;48.206;16.340;2022-11-15T09:38:38;21.33;;;18.92;;
16330;SDS011;8275;48.206;16.340;2022-11-15T09:41:22;26.85;;;18.23;;
16330;SDS011;8275;48.206;16.340;2022-11-15T09:44:10;22.23;;;15.93;;
16330;SDS011;8275;48.206;16.340;2022-11-15T09:46:58;20.30;;;14.93;;
16330;SDS011;8275;48.206;16.340;2022-11-15T09:49:42;22.10;;;16.42;;
16330;SDS011;8275;48.206;16.340;2022-11-15T09:52:11;20.17;;;17.48;;
16330;SDS011;8275;48.206;16.340;2022-11-15T09:54:43;25.05;;;17.60;;
16330;SDS011;8275;48.206;16.340;2022-11-15T09:57:22;27.27;;;18.30;;
16330;SDS011;8275;48.206;16.340;2022-11-15T10:00:00;26.23;;;20.15;;
16330;SDS011;8275;48.206;16.340;2022-11-15T10:03:08;24.30;;;19.88;;
16330;SDS011;8275;48.206;16.340;2022-11-15T10:05:41;26.88;;;18.55;;
16330;SDS011;8275;48.206;16.340;2022-11-15T10:08:16;26.25;;;17.77;;
16330;SDS011;8275;48.206;16.340;2022-11-15T10:11:05;22.92;;;17.20;;
16330;SDS011;8275;48.206;16.340;2022-11-15T10:13:57;28.73;;;19.98;;
16330;SDS011;8275;48.206;16.340;2022-11-15T10:16:35;25.73;;;19.00;;
16330;SDS011;8275;48.206;16.340;2022-11-15T10:19:52;28.52;;;16.60;;
16330;SDS011;8275;48.206;16.340;2022-11-15T10:22:35;21.75;;;18.25;;
16330;SDS011;8275;48.206;16.340;2022-11-15T10:25:14;23.67;;;15.85;;
16330;SDS011;8275;48.206;16.340;2022-11-15T10:27:52;25.65;;;16.48;;
16330;SDS011;8275;48.206;16.340;2022-11-15T10:30:28;30.65;;;18.23;;
16330;SDS011;8275;48.206;16.340;2022-11-15T10:33:08;26.30;;;17.05;;
16330;SDS011;8275;48.206;16.340;2022-11-15T10:35:47;25.02;;;16.77;;
16330;SDS011;8275;48.206;16.340;2022-11-15T10:38:16;25.38;;;18.42;;
16330;SDS011;8275;48.206;16.340;2022-11-15T10:40:44;28.23;;;20.73;;
16330;SDS011;8275;48.206;16.340;2022-11-15T10:43:15;25.38;;;19.52;;
16330;SDS011;8275;48.206;16.340;2022-11-15T10:45:45;30.27;;;20.30;;
16330;SDS011;8275;48.206;16.340;2022-11-15T10:48:20;28.00;;;19.75;;
16330;SDS011;8275;48.206;16.340;2022-11-15T10:50:51;34.28;;;20.05;;
16330;SDS011;8275;48.206;16.340;2022-11-15T10:53:23;38.03;;;28.90;;
16330;SDS011;8275;48.206;16.340;2022-11-15T10:55:58;29.73;;;21.45;;
16330;SDS011;8275;48.206;16.340;2022-11-15T10:58:34;34.03;;;23.05;;
16330;SDS011;8275;48.206;16.340;2022-11-15T11:01:11;24.73;;;18.73;;
16330;SDS011;8275;48.206;16.340;2022-11-15T11:03:43;27.75;;;19.75;;
16330;SDS011;8275;48.206;16.340;2022-11-15T11:06:24;22.45;;;18.52;;
16330;SDS011;8275;48.206;16.340;2022-11-15T11:08:54;27.65;;;19.33;;
16330;SDS011;8275;48.206;16.340;2022-11-15T11:11:25;31.15;;;20.85;;
16330;SDS011;8275;48.206;16.340;2022-11-15T11:14:13;27.05;;;20.25;;
16330;SDS011;8275;48.206;16.340;2022-11-15T11:16:49;28.15;;;20.15;;
16330;SDS011;8275;48.206;16.340;2022-11-15T11:19:34;30.85;;;19.50;;
16330;SDS011;8275;48.206;16.340;2022-11-15T11:22:26;27.27;;;19.52;;
16330;SDS011;8275;48.206;16.340;2022-11-15T11:25:04;27.10;;;17.70;;
16330;SDS011;8275;48.206;16.340;2022-11-15T11:27:50;21.38;;;17.00;;
16330;SDS011;8275;48.206;16.340;2022-11-15T11:30:37;34.05;;;22.83;;
16330;SDS011;8275;48.206;16.340;2022-11-15T11:33:18;25.85;;;22.02;;
16330;SDS011;8275;48.206;16.340;2022-11-15T11:35:58;29.92;;;21.30;;
16330;SDS011;8275;48.206;16.340;2022-11-15T11:41:42;31.77;;;22.10;;
16330;SDS011;8275;48.206;16.340;2022-11-15T11:44:24;30.27;;;21.70;;
16330;SDS011;8275;48.206;16.340;2022-11-15T11:47:03;25.25;;;20.70;;
16330;SDS011;8275;48.206;16.340;2022-11-15T11:49:40;24.77;;;19.80;;
16330;SDS011;8275;48.206;16.340;2022-11-15T11:52:15;19.35;;;17.15;;
16330;SDS011;8275;48.206;16.340;2022-11-15T11:54:52;26.63;;;19.20;;
16330;SDS011;8275;48.206;16.340;2022-11-15T11:57:34;27.35;;;19.23;;
16330;SDS011;8275;48.206;16.340;2022-11-15T12:00:15;25.95;;;20.08;;
16330;SDS011;8275;48.206;16.340;2022-11-15T12:02:50;29.05;;;17.65;;
16330;SDS011;8275;48.206;16.340;2022-11-15T12:05:32;25.77;;;16.48;;
16330;SDS011;8275;48.206;16.340;2022-11-15T12:08:09;24.63;;;17.58;;
16330;SDS011;8275;48.206;16.340;2022-11-15T12:10:54;21.67;;;16.38;;
16330;SDS011;8275;48.206;16.340;2022-11-15T12:13:32;25.70;;;16.95;;
16330;SDS011;8275;48.206;16.340;2022-11-15T12:16:05;22.65;;;19.13;;
16330;SDS011;8275;48.206;16.340;2022-11-15T12:18:44;22.45;;;18.20;;
16330;SDS011;8275;48.206;16.340;2022-11-15T12:21:17;27.98;;;18.92;;
16330;SDS011;8275;48.206;16.340;2022-11-15T12:23:54;28.65;;;19.75;;
16330;SDS011;8275;48.206;16.340;2022-11-15T12:26:31;22.05;;;17.20;;
16330;SDS011;8275;48.206;16.340;2022-11-15T12:29:05;25.42;;;19.90;;
16330;SDS011;8275;48.206;16.340;2022-11-15T12:31:43;25.20;;;18.52;;
16330;SDS011;8275;48.206;16.340;2022-11-15T12:34:33;21.65;;;16.67;;
16330;SDS011;8275;48.206;16.340;2022-11-15T12:40:18;20.85;;;18.58;;
16330;SDS011;8275;48.206;16.340;2022-11-15T12:42:58;21.80;;;16.55;;
16330;SDS011;8275;48.206;16.340;2022-11-15T12:46:08;31.08;;;17.83;;
16330;SDS011;8275;48.206;16.340;2022-11-15T12:48:50;25.88;;;15.93;;
16330;SDS011;8275;48.206;16.340;2022-11-15T12:54:57;21.23;;;13.85;;
16330;SDS011;8275;48.206;16.340;2022-11-15T12:57:50;23.88;;;15.82;;
16330;SDS011;8275;48.206;16.340;2022-11-15T13:03:22;22.52;;;17.27;;
16330;SDS011;8275;48.206;16.340;2022-11-15T13:05:58;22.38;;;17.02;;
16330;SDS011;8275;48.206;16.340;2022-11-15T13:08:44;23.38;;;16.15;;
16330;SDS011;8275;48.206;16.340;2022-11-15T13:17:19;25.67;;;16.17;;
16330;SDS011;8275;48.206;16.340;2022-11-15T13:22:51;21.25;;;17.70;;
16330;SDS011;8275;48.206;16.340;2022-11-15T13:25:38;21.38;;;16.17;;
16330;SDS011;8275;48.206;16.340;2022-11-15T13:28:37;19.25;;;15.85;;
16330;SDS011;8275;48.206;16.340;2022-11-15T13:31:17;20.48;;;15.80;;
16330;SDS011;8275;48.206;16.340;2022-11-15T13:33:53;20.88;;;16.08;;
16330;SDS011;8275;48.206;16.340;2022-11-15T13:36:26;18.02;;;14.43;;
16330;SDS011;8275;48.206;16.340;2022-11-15T13:39:00;22.67;;;17.48;;
16330;SDS011;8275;48.206;16.340;2022-11-15T13:41:32;15.57;;;13.00;;
16330;SDS011;8275;48.206;16.340;2022-11-15T13:44:03;19.98;;;15.73;;
16330;SDS011;8275;48.206;16.340;2022-11-15T13:46:45;21.35;;;13.98;;
16330;SDS011;8275;48.206;16.340;2022-11-15T13:49:14;23.77;;;15.38;;
16330;SDS011;8275;48.206;16.340;2022-11-15T13:51:43;20.98;;;14.68;;
16330;SDS011;8275;48.206;16.340;2022-11-15T13:54:16;21.73;;;17.48;;
16330;SDS011;8275;48.206;16.340;2022-11-15T13:56:49;17.17;;;14.25;;
16330;SDS011;8275;48.206;16.340;2022-11-15T13:59:23;23.50;;;17.00;;
16330;SDS011;8275;48.206;16.340;2022-11-15T14:01:55;17.98;;;16.15;;
16330;SDS011;8275;48.206;16.340;2022-11-15T14:04:28;18.83;;;13.55;;
16330;SDS011;8275;48.206;16.340;2022-11-15T14:07:00;27.17;;;16.25;;
16330;SDS011;8275;48.206;16.340;2022-11-15T14:09:34;18.08;;;15.80;;
16330;SDS011;8275;48.206;16.340;2022-11-15T14:12:25;19.45;;;15.32;;
16330;SDS011;8275;48.206;16.340;2022-11-15T14:14:57;17.83;;;15.70;;
16330;SDS011;8275;48.206;16.340;2022-11-15T14:17:34;15.95;;;14.15;;
16330;SDS011;8275;48.206;16.340;2022-11-15T14:20:25;20.30;;;15.98;;
16330;SDS011;8275;48.206;16.340;2022-11-15T14:22:59;18.30;;;15.57;;
16330;SDS011;8275;48.206;16.340;2022-11-15T14:25:29;19.88;;;15.95;;
16330;SDS011;8275;48.206;16.340;2022-11-15T14:31:06;20.27;;;15.93;;
16330;SDS011;8275;48.206;16.340;2022-11-15T14:33:40;24.30;;;14.25;;
16330;SDS011;8275;48.206;16.340;2022-11-15T14:36:11;15.10;;;13.40;;
16330;SDS011;8275;48.206;16.340;2022-11-15T14:38:41;17.27;;;14.43;;
16330;SDS011;8275;48.206;16.340;2022-11-15T14:41:15;18.17;;;16.08;;
16330;SDS011;8275;48.206;16.340;2022-11-15T14:43:48;20.13;;;14.48;;
16330;SDS011;8275;48.206;16.340;2022-11-15T14:46:18;19.02;;;14.05;;
16330;SDS011;8275;48.206;16.340;2022-11-15T14:48:47;16.05;;;14.18;;
16330;SDS011;8275;48.206;16.340;2022-11-15T14:51:16;16.63;;;14.40;;
16330;SDS011;8275;48.206;16.340;2022-11-15T14:53:45;16.35;;;13.63;;
16330;SDS011;8275;48.206;16.340;2022-11-15T14:56:15;19.15;;;15.13;;
16330;SDS011;8275;48.206;16.340;2022-11-15T14:58:44;17.08;;;13.55;;
16330;SDS011;8275;48.206;16.340;2022-11-15T15:01:16;18.10;;;15.75;;
16330;SDS011;8275;48.206;16.340;2022-11-15T15:03:48;17.60;;;15.35;;
16330;SDS011;8275;48.206;16.340;2022-11-15T15:06:18;21.67;;;16.65;;
16330;SDS011;8275;48.206;16.340;2022-11-15T15:08:47;24.08;;;17.15;;
16330;SDS011;8275;48.206;16.340;2022-11-15T15:11:18;18.15;;;16.00;;
16330;SDS011;8275;48.206;16.340;2022-11-15T15:13:50;24.05;;;18.10;;
16330;SDS011;8275;48.206;16.340;2022-11-15T15:16:20;17.02;;;14.43;;
16330;SDS011;8275;48.206;16.340;2022-11-15T15:18:49;25.67;;;17.63;;
16330;SDS011;8275;48.206;16.340;2022-11-15T15:21:19;34.28;;;25.70;;
16330;SDS011;8275;48.206;16.340;2022-11-15T15:23:49;35.33;;;28.98;;
16330;SDS011;8275;48.206;16.340;2022-11-15T15:26:18;41.45;;;30.90;;